Glasgo, Connecticut
Current Conditions -  °F | °C
As of 6:53 AM on Tuesday 27 Jan 2015 (Local Time) from KWST Reporting Station
Moderate Fog Moderate Fog  
Wind Chill:   Ceiling: 300
Heat Index: 18°   Visibility: 0.25mi
Dew Point: 15°   Wind: 22mph
Humidity: 88%   Direction: 10°N
Pressure: 29.49"   Gusts: 36mph
Location:  41.56°N, 71.89°W
Report Text: KWST 271153Z AUTO 01019G31KT 1/4SM FZFG VV003 M08/M09 A2949 RMK AO2 PK WND 01031/1145 SLP985 70011 T10781094 11061 21078 58009 PWINO FZRANO $
Loading
Personal Weather Stations






























Interactive Weather Map New forecast layout! Learn more

10-Day Weather Forecast

Advertisements
Track Severe Weather on mobile